Time;durP1;ratioP1;P1;durP2;ratioP2;P2;SDS_P1;SDS_P2;PMS_P1;PMS_P2;Temp;Humidity;BMP_temperature;BMP_pressure;BME280_temperature;BME280_humidity;BME280_pressure;Samples;Min_cycle;Max_cycle;Signal;HPM_P1;HPM_P2
2022/06/23 00:00:37;;;;;;;27.05;18.92;;;19.80;75.20;;;;;;7360874;19;20013;-61
2022/06/23 00:03:08;;;;;;;24.15;19.48;;;19.70;74.90;;;;;;7360309;19;20022;-61
2022/06/23 00:05:41;;;;;;;26.10;20.13;;;19.60;75.60;;;;;;7364005;19;20018;-61
2022/06/23 00:08:17;;;;;;;29.00;19.00;;;19.50;76.60;;;;;;7387481;19;20016;-61
2022/06/23 00:10:51;;;;;;;29.63;19.52;;;19.50;77.00;;;;;;7359808;19;20469;-61
2022/06/23 00:13:26;;;;;;;34.78;19.63;;;19.50;77.70;;;;;;7359663;19;20025;-60
2022/06/23 00:15:57;;;;;;;31.15;20.38;;;19.60;78.70;;;;;;7363998;19;20022;-61
2022/06/23 00:18:29;;;;;;;32.38;20.85;;;19.60;78.90;;;;;;7365114;19;20019;-61
2022/06/23 00:21:03;;;;;;;28.48;19.35;;;19.50;78.60;;;;;;7360138;19;20075;-61
2022/06/23 00:23:39;;;;;;;27.58;19.55;;;19.50;78.80;;;;;;7362743;19;20022;-63
2022/06/23 00:26:14;;;;;;;29.13;20.05;;;19.40;78.80;;;;;;7388032;19;20019;-62
2022/06/23 00:28:47;;;;;;;30.98;21.08;;;19.40;78.80;;;;;;7371650;19;20022;-62
2022/06/23 00:31:27;;;;;;;29.70;20.98;;;19.40;78.90;;;;;;7365075;19;20006;-62
2022/06/23 00:33:58;;;;;;;30.23;20.13;;;19.40;78.90;;;;;;7368341;19;20029;-61
2022/06/23 00:36:37;;;;;;;30.08;20.88;;;19.30;79.10;;;;;;7370802;19;20027;-61
2022/06/23 00:39:25;;;;;;;29.42;20.85;;;19.30;80.10;;;;;;7369153;19;20014;-61
2022/06/23 00:41:55;;;;;;;57.22;23.65;;;19.10;80.10;;;;;;7364985;19;20034;-61
2022/06/23 00:44:32;;;;;;;35.55;22.92;;;19.00;80.40;;;;;;7371733;19;20021;-62
2022/06/23 00:47:05;;;;;;;31.88;21.70;;;18.90;80.90;;;;;;7391139;19;20010;-61
2022/06/23 00:49:42;;;;;;;31.55;20.98;;;18.90;82.10;;;;;;7366131;19;20021;-61
2022/06/23 00:52:21;;;;;;;28.27;20.85;;;18.90;82.70;;;;;;7367174;19;20018;-62
2022/06/23 00:54:58;;;;;;;31.40;20.63;;;19.00;83.70;;;;;;7370920;19;20021;-62
2022/06/23 00:57:33;;;;;;;33.55;21.25;;;19.00;84.10;;;;;;7370036;19;20031;-62
2022/06/23 01:00:13;;;;;;;31.42;21.55;;;19.00;84.20;;;;;;7369315;19;20011;-62
2022/06/23 01:02:47;;;;;;;30.42;20.80;;;19.00;84.30;;;;;;7364335;19;20014;-61
2022/06/23 01:05:20;;;;;;;;;;;19.00;84.40;;;;;;7393054;19;20611;-62
2022/06/23 01:07:58;;;;;;;29.08;20.30;;;18.90;83.80;;;;;;7368020;19;20391;-61
2022/06/23 01:10:37;;;;;;;34.55;21.10;;;18.90;84.00;;;;;;7367485;19;20013;-62
2022/06/23 01:13:17;;;;;;;32.33;20.92;;;18.90;84.20;;;;;;7365291;19;20119;-62
2022/06/23 01:15:53;;;;;;;26.60;19.95;;;18.90;84.40;;;;;;7368031;19;20612;-62
2022/06/23 01:18:28;;;;;;;28.10;20.30;;;18.90;84.50;;;;;;7368881;19;20010;-62
2022/06/23 01:21:04;;;;;;;25.85;20.30;;;18.90;84.60;;;;;;7365472;19;20521;-62
2022/06/23 01:23:52;;;;;;;25.35;19.88;;;18.90;84.60;;;;;;7366725;19;20010;-62
2022/06/23 01:26:52;;;;;;;26.08;19.05;;;18.90;84.70;;;;;;7369488;19;20029;-64
2022/06/23 01:29:30;;;;;;;23.13;19.33;;;18.90;84.80;;;;;;7369821;19;20074;-63
2022/06/23 01:32:11;;;;;;;30.75;19.65;;;18.90;84.90;;;;;;7383133;19;20011;-62
2022/06/23 01:34:49;;;;;;;26.65;19.98;;;18.80;84.70;;;;;;7370277;19;20013;-62
2022/06/23 01:37:29;;;;;;;27.05;18.83;;;18.80;84.70;;;;;;7366458;19;20017;-62
2022/06/23 01:40:09;;;;;;;24.70;18.10;;;18.80;84.80;;;;;;7367252;19;20113;-62
2022/06/23 01:42:46;;;;;;;28.88;17.75;;;18.80;84.80;;;;;;7363140;19;20020;-62
2022/06/23 01:45:25;;;;;;;26.27;18.73;;;18.80;84.90;;;;;;7370100;19;20600;-62
2022/06/23 01:48:12;;;;;;;27.95;19.25;;;18.80;84.80;;;;;;7369496;19;20034;-61
2022/06/23 01:50:44;;;;;;;30.20;18.17;;;18.80;84.80;;;;;;7366138;19;20018;-61
2022/06/23 01:53:21;;;;;;;21.48;17.75;;;18.80;85.10;;;;;;7386442;19;20018;-62
2022/06/23 01:56:19;;;;;;;24.63;18.13;;;18.80;84.70;;;;;;7368699;19;20473;-62
2022/06/23 01:58:58;;;;;;;24.50;18.13;;;18.80;84.50;;;;;;7368914;19;20018;-62
2022/06/23 02:01:40;;;;;;;23.05;17.55;;;18.70;84.30;;;;;;7361876;19;20010;-60
2022/06/23 02:04:16;;;;;;;29.80;18.77;;;18.70;84.40;;;;;;7367464;19;20035;-61
2022/06/23 02:06:53;;;;;;;23.08;18.80;;;18.80;84.60;;;;;;7368515;19;20420;-61
2022/06/23 02:09:32;;;;;;;27.63;18.52;;;18.80;84.60;;;;;;7369550;19;20017;-61
2022/06/23 02:12:02;;;;;;;26.13;18.98;;;18.70;84.20;;;;;;7359409;19;20014;-62
2022/06/23 02:14:49;;;;;;;25.63;18.38;;;18.70;83.90;;;;;;7369277;19;20015;-62
2022/06/23 02:17:37;;;;;;;24.67;17.50;;;18.60;83.90;;;;;;7389198;19;20010;-62
2022/06/23 02:20:23;;;;;;;21.55;18.20;;;18.60;83.90;;;;;;7364708;19;20017;-62
2022/06/23 02:23:04;;;;;;;25.00;20.13;;;18.60;84.00;;;;;;7362112;19;20006;-62
2022/06/23 02:25:39;;;;;;;29.40;19.60;;;18.60;84.10;;;;;;7368445;19;20007;-61
2022/06/23 02:28:14;;;;;;;27.92;18.30;;;18.50;84.00;;;;;;7367821;19;20085;-62
2022/06/23 02:30:48;;;;;;;32.50;20.55;;;18.60;84.40;;;;;;7365357;19;20081;-61
2022/06/23 02:33:26;;;;;;;26.33;19.40;;;18.60;84.40;;;;;;7361736;19;20021;-63
2022/06/23 02:36:03;;;;;;;25.77;19.23;;;18.50;84.10;;;;;;7367925;19;20006;-61
2022/06/23 02:38:36;;;;;;;29.05;19.17;;;18.50;84.30;;;;;;7368076;19;20025;-62
2022/06/23 02:41:13;;;;;;;24.58;18.35;;;18.40;84.00;;;;;;7384150;19;20018;-62
2022/06/23 02:43:47;;;;;;;22.30;17.70;;;18.40;84.20;;;;;;7364007;19;20058;-60
2022/06/23 02:46:40;;;;;;;27.60;17.85;;;18.30;84.00;;;;;;7366415;19;20010;-60
2022/06/23 02:49:44;;;;;;;32.60;19.60;;;18.40;84.50;;;;;;7366249;19;20014;-62
2022/06/23 02:52:43;;;;;;;37.93;22.30;;;18.50;84.80;;;;;;7361155;19;20085;-62
2022/06/23 02:55:29;;;;;;;28.00;20.48;;;18.50;84.90;;;;;;7365980;19;20002;-62
2022/06/23 02:58:07;;;;;;;29.10;19.98;;;18.50;85.00;;;;;;7367640;19;20015;-63
2022/06/23 03:00:47;;;;;;;31.40;20.75;;;18.40;84.70;;;;;;7363941;19;20017;-61
2022/06/23 03:03:22;;;;;;;28.63;19.70;;;18.40;84.70;;;;;;7360875;19;20018;-62
2022/06/23 03:06:01;;;;;;;25.38;18.77;;;18.40;84.80;;;;;;7366152;19;20025;-61
2022/06/23 03:08:39;;;;;;;28.35;19.23;;;18.40;84.80;;;;;;7366658;19;20020;-61
2022/06/23 03:11:16;;;;;;;26.92;18.77;;;18.40;84.80;;;;;;7382589;19;20074;-62
2022/06/23 03:13:52;;;;;;;26.60;18.83;;;18.50;85.00;;;;;;7365802;19;20021;-61
2022/06/23 03:16:26;;;;;;;30.13;20.67;;;18.50;85.00;;;;;;7365308;19;20089;-61
2022/06/23 03:19:02;;;;;;;31.30;18.45;;;18.50;84.90;;;;;;7365930;19;20017;-62
2022/06/23 03:21:44;;;;;;;26.27;18.95;;;18.50;85.00;;;;;;7360236;19;20023;-61
2022/06/23 03:24:24;;;;;;;24.63;18.27;;;18.50;84.80;;;;;;7366745;19;20049;-62
2022/06/23 03:26:59;;;;;;;28.55;18.75;;;18.60;84.80;;;;;;7364804;19;20367;-64
2022/06/23 03:29:34;;;;;;;21.83;17.30;;;18.50;84.00;;;;;;7366175;19;20018;-63
2022/06/23 03:32:12;;;;;;;22.92;17.20;;;18.60;83.70;;;;;;7379451;19;20014;-64
2022/06/23 03:35:02;;;;;;;23.00;17.02;;;18.60;83.40;;;;;;7366924;19;20010;-60
2022/06/23 03:37:44;;;;;;;21.13;15.77;;;18.60;82.20;;;;;;7366576;19;20090;-60
2022/06/23 03:43:14;;;;;;;23.75;15.50;;;18.70;82.10;;;;;;7359356;19;20010;-60
2022/06/23 03:45:50;;;;;;;19.23;14.75;;;18.70;80.20;;;;;;7365399;19;20024;-61
2022/06/23 03:48:26;;;;;;;20.30;14.48;;;18.70;76.80;;;;;;7364640;19;20095;-60
2022/06/23 03:51:01;;;;;;;20.75;13.73;;;19.30;73.90;;;;;;7362830;19;20010;-60
2022/06/23 03:53:42;;;;;;;18.42;13.35;;;19.60;65.40;;;;;;7363264;19;20144;-61
2022/06/23 03:56:17;;;;;;;14.88;11.75;;;20.10;57.80;;;;;;7384318;19;20006;-61
2022/06/23 03:58:53;;;;;;;15.52;10.57;;;20.50;50.50;;;;;;7365487;19;20020;-61
2022/06/23 04:01:28;;;;;;;16.33;9.73;;;21.00;41.10;;;;;;7362053;19;20025;-61
2022/06/23 04:04:02;;;;;;;16.05;10.10;;;21.30;33.20;;;;;;7369188;19;20014;-61
2022/06/23 04:06:36;;;;;;;;;;;21.50;31.10;;;;;;7373560;19;20014;-61
2022/06/23 04:09:17;;;;;;;16.85;9.95;;;20.90;33.60;;;;;;7372712;19;19907;-61
2022/06/23 04:11:57;;;;;;;14.15;8.98;;;20.90;38.90;;;;;;7364995;19;20014;-61
2022/06/23 04:14:44;;;;;;;12.07;9.27;;;20.80;37.50;;;;;;7373023;19;20032;-61
2022/06/23 04:17:23;;;;;;;15.95;8.98;;;21.10;33.90;;;;;;7391873;19;20014;-61
2022/06/23 04:19:58;;;;;;;17.67;8.45;;;21.30;31.30;;;;;;7370749;19;20713;-61
2022/06/23 04:22:33;;;;;;;13.68;8.60;;;21.20;28.20;;;;;;7367231;19;20017;-61
2022/06/23 04:25:07;;;;;;;14.70;8.25;;;21.30;30.60;;;;;;7372249;19;20002;-61
2022/06/23 04:27:42;;;;;;;17.05;7.78;;;21.90;28.50;;;;;;7370400;19;20006;-61
2022/06/23 04:30:22;;;;;;;16.42;8.32;;;21.50;27.70;;;;;;7368854;19;20381;-61
2022/06/23 04:32:53;;;;;;;15.38;7.32;;;21.60;30.50;;;;;;7365751;19;20387;-61
2022/06/23 04:35:28;;;;;;;15.68;7.93;;;22.80;19.70;;;;;;7372735;19;20016;-62
2022/06/23 04:38:07;;;;;;;15.68;7.22;;;22.00;20.60;;;;;;7393378;19;20026;-61
2022/06/23 04:40:49;;;;;;;14.30;7.38;;;22.00;21.00;;;;;;7368058;19;20495;-61
2022/06/23 04:43:24;;;;;;;13.95;6.75;;;23.10;14.40;;;;;;7366114;19;20011;-61
2022/06/23 04:45:59;;;;;;;14.40;6.65;;;23.10;13.00;;;;;;7369709;19;20489;-61
2022/06/23 04:48:34;;;;;;;13.52;6.45;;;22.30;19.60;;;;;;7369221;19;20019;-61
2022/06/23 04:51:08;;;;;;;15.80;6.18;;;22.00;23.20;;;;;;7364150;19;20734;-61
2022/06/23 04:53:48;;;;;;;17.75;6.70;;;21.90;20.50;;;;;;7366769;19;20010;-61
2022/06/23 04:56:41;;;;;;;17.80;7.18;;;22.30;18.40;;;;;;7392064;19;20018;-60
2022/06/23 04:59:40;;;;;;;18.10;7.40;;;21.50;21.30;;;;;;7370615;19;20010;-60
2022/06/23 05:02:30;;;;;;;12.68;7.57;;;21.20;25.00;;;;;;7361327;19;20041;-61
2022/06/23 05:05:06;;;;;;;15.07;8.20;;;21.20;24.50;;;;;;7367081;19;20765;-60
2022/06/23 05:07:43;;;;;;;17.35;7.63;;;23.10;14.80;;;;;;7368889;19;20015;-60
2022/06/23 05:10:19;;;;;;;12.50;7.38;;;24.40;4.10;;;;;;7364770;19;20014;-60
2022/06/23 05:12:57;;;;;;;10.65;6.68;;;24.90;1.00;;;;;;7364145;19;20078;-60
2022/06/23 05:15:33;;;;;;;12.80;6.38;;;25.50;1.00;;;;;;7368183;19;20092;-61
2022/06/23 05:18:07;;;;;;;11.70;6.53;;;25.50;1.00;;;;;;7367300;19;20019;-61
2022/06/23 05:20:48;;;;;;;12.20;6.40;;;25.60;1.00;;;;;;7365734;19;20025;-61
2022/06/23 05:23:23;;;;;;;13.15;7.40;;;26.00;1.00;;;;;;7385323;19;20020;-61
2022/06/23 05:25:57;;;;;;;15.95;6.95;;;25.60;1.00;;;;;;7367395;19;20014;-60
2022/06/23 05:28:36;;;;;;;14.10;6.80;;;25.80;1.00;;;;;;7367082;19;20114;-60
2022/06/23 05:31:11;;;;;;;17.13;7.70;;;26.50;1.00;;;;;;7362420;19;20492;-61
2022/06/23 05:33:49;;;;;;;12.25;7.07;;;25.80;1.00;;;;;;7364328;19;20006;-60
2022/06/23 05:36:24;;;;;;;19.30;6.90;;;26.50;1.00;;;;;;7368231;19;21318;-60
2022/06/23 05:38:58;;;;;;;12.68;6.78;;;26.40;1.00;;;;;;7367530;19;20022;-61
2022/06/23 05:41:35;;;;;;;18.90;7.03;;;26.00;1.00;;;;;;7361797;19;20018;-60
2022/06/23 05:44:20;;;;;;;16.63;7.45;;;26.50;1.00;;;;;;7388184;19;20042;-60
2022/06/23 05:46:52;;;;;;;16.48;7.50;;;25.80;1.00;;;;;;7365361;19;20024;-61
2022/06/23 05:49:32;;;;;;;18.80;7.82;;;25.80;1.00;;;;;;7366675;19;20047;-61
2022/06/23 05:52:06;;;;;;;13.43;7.82;;;25.30;1.00;;;;;;7358079;19;20022;-61
2022/06/23 05:54:43;;;;;;;16.45;7.63;;;25.10;1.00;;;;;;7367620;19;20025;-61
2022/06/23 05:57:18;;;;;;;15.02;7.75;;;25.40;1.00;;;;;;7366194;19;20017;-60
2022/06/23 06:00:03;;;;;;;15.65;7.10;;;25.80;1.00;;;;;;7365640;19;20078;-61
2022/06/23 06:02:40;;;;;;;16.15;7.78;;;25.40;1.00;;;;;;7362735;19;20014;-61
2022/06/23 06:05:21;;;;;;;15.48;7.07;;;24.70;1.00;;;;;;7390273;19;20006;-61
2022/06/23 06:07:51;;;;;;;13.57;8.10;;;24.60;1.00;;;;;;7368637;19;20070;-61
2022/06/23 06:10:28;;;;;;;17.02;8.05;;;23.40;5.60;;;;;;7363399;19;20013;-61
2022/06/23 06:13:00;;;;;;;16.35;8.13;;;22.80;11.60;;;;;;7362535;19;20432;-61
2022/06/23 06:15:35;;;;;;;16.58;7.32;;;22.90;12.90;;;;;;7367998;19;20007;-61
2022/06/23 06:18:20;;;;;;;15.30;7.43;;;23.80;9.70;;;;;;7369027;19;20506;-61
2022/06/23 06:20:51;;;;;;;18.42;8.30;;;23.90;7.60;;;;;;7364033;19;20025;-60
2022/06/23 06:23:28;;;;;;;14.70;7.70;;;23.70;8.40;;;;;;7362567;19;20018;-60
2022/06/23 06:25:58;;;;;;;16.83;7.88;;;23.70;9.70;;;;;;7387805;19;20081;-60
2022/06/23 06:28:32;;;;;;;16.67;8.90;;;24.00;9.90;;;;;;7366409;19;20010;-60
2022/06/23 06:31:10;;;;;;;16.75;8.63;;;24.00;9.50;;;;;;7362793;19;20018;-61
2022/06/23 06:33:49;;;;;;;20.02;9.18;;;24.20;7.60;;;;;;7364199;19;20035;-60
2022/06/23 06:36:26;;;;;;;15.52;8.65;;;24.50;6.60;;;;;;7367999;19;21780;-61
2022/06/23 06:39:00;;;;;;;16.88;8.60;;;24.20;2.30;;;;;;7367647;19;20014;-60
2022/06/23 06:41:30;;;;;;;;;;;24.00;2.20;;;;;;7360596;19;20014;-62
2022/06/23 06:44:01;;;;;;;12.20;8.30;;;24.90;1.30;;;;;;7384894;19;19921;-61
2022/06/23 06:46:34;;;;;;;13.88;7.50;;;24.00;4.70;;;;;;7364597;19;20018;-61
2022/06/23 06:49:04;;;;;;;12.43;8.13;;;24.00;3.40;;;;;;7367738;19;20022;-61
2022/06/23 06:51:34;;;;;;;14.93;7.60;;;23.60;3.60;;;;;;7360741;19;20403;-62
2022/06/23 06:54:09;;;;;;;13.75;8.55;;;23.90;4.90;;;;;;7366127;19;20014;-62
2022/06/23 06:56:43;;;;;;;16.73;8.18;;;23.80;9.10;;;;;;7365646;19;20016;-60
2022/06/23 06:59:21;;;;;;;13.85;8.60;;;23.70;8.30;;;;;;7389048;19;20462;-61
2022/06/23 07:01:58;;;;;;;17.67;8.52;;;24.00;10.80;;;;;;7357662;19;20111;-62
2022/06/23 07:04:32;;;;;;;16.65;9.25;;;24.30;6.00;;;;;;7366277;19;20011;-61
2022/06/23 07:07:07;;;;;;;15.60;6.30;;;24.00;7.80;;;;;;7364899;19;20014;-61
2022/06/23 07:09:43;;;;;;;12.27;6.90;;;24.00;9.70;;;;;;7366569;19;20014;-62
2022/06/23 07:12:19;;;;;;;14.15;7.43;;;24.50;6.40;;;;;;7358600;19;20016;-62
2022/06/23 07:14:56;;;;;;;12.77;6.25;;;24.80;4.40;;;;;;7367433;19;20022;-61
2022/06/23 07:17:37;;;;;;;13.00;6.80;;;24.90;2.80;;;;;;7364053;19;20018;-61
2022/06/23 07:20:14;;;;;;;14.82;6.75;;;24.00;4.20;;;;;;7385519;19;20052;-61
2022/06/23 07:22:49;;;;;;;16.98;6.65;;;24.00;9.90;;;;;;7359581;19;20484;-61
2022/06/23 07:25:23;;;;;;;14.73;5.88;;;23.80;7.20;;;;;;7364985;19;20021;-61
2022/06/23 07:27:57;;;;;;;14.65;6.25;;;23.70;8.40;;;;;;7366156;19;20014;-62
2022/06/23 07:30:30;;;;;;;15.23;5.75;;;23.50;9.40;;;;;;7362128;19;20010;-60
2022/06/23 07:33:06;;;;;;;12.95;5.72;;;24.50;5.30;;;;;;7360119;19;20026;-61
2022/06/23 07:35:41;;;;;;;13.57;5.57;;;24.00;7.20;;;;;;7362298;19;20014;-62
2022/06/23 07:38:15;;;;;;;10.43;5.20;;;24.30;5.00;;;;;;7387300;19;20018;-62
2022/06/23 07:40:51;;;;;;;11.63;4.38;;;24.60;2.10;;;;;;7360179;19;20027;-62
2022/06/23 07:43:29;;;;;;;11.98;4.55;;;24.60;1.00;;;;;;7358999;19;20010;-62
2022/06/23 07:46:02;;;;;;;11.45;5.80;;;24.70;1.00;;;;;;7363536;19;20904;-62
2022/06/23 07:48:36;;;;;;;11.25;5.65;;;25.00;1.00;;;;;;7365893;19;20081;-61
2022/06/23 07:51:09;;;;;;;9.57;5.05;;;24.70;1.00;;;;;;7359881;19;20019;-61
2022/06/23 07:53:42;;;;;;;12.77;5.10;;;24.90;1.00;;;;;;7363120;19;20026;-62
2022/06/23 07:56:16;;;;;;;9.93;5.18;;;24.50;1.00;;;;;;7384160;19;20021;-62
2022/06/23 07:58:49;;;;;;;13.65;5.28;;;24.50;1.50;;;;;;7365002;19;20427;-62
2022/06/23 08:01:24;;;;;;;6.63;4.55;;;24.80;2.10;;;;;;7359002;19;20017;-61
2022/06/23 08:04:04;;;;;;;16.10;5.20;;;24.40;1.00;;;;;;7362603;19;20014;-61
2022/06/23 08:06:36;;;;;;;12.40;5.47;;;24.40;2.30;;;;;;7364271;19;20032;-63
2022/06/23 08:09:13;;;;;;;10.50;4.97;;;24.80;1.00;;;;;;7365553;19;20014;-61
2022/06/23 08:14:50;;;;;;;9.82;5.00;;;25.00;1.00;;;;;;7364705;19;20075;-62
2022/06/23 08:17:19;;;;;;;13.43;4.80;;;25.10;1.00;;;;;;7381061;19;20015;-64
2022/06/23 08:19:58;;;;;;;10.23;4.90;;;25.30;1.00;;;;;;7385961;19;20489;-61
2022/06/23 08:22:31;;;;;;;11.38;4.72;;;25.10;1.00;;;;;;7358389;19;20015;-62
2022/06/23 08:25:06;;;;;;;11.23;4.78;;;25.10;1.00;;;;;;7364526;19;20477;-62
2022/06/23 08:27:55;;;;;;;10.45;4.60;;;25.40;1.00;;;;;;7363954;19;20015;-61
2022/06/23 08:30:26;;;;;;;11.63;4.47;;;25.30;1.00;;;;;;7361647;19;20035;-61
2022/06/23 08:32:57;;;;;;;10.70;4.32;;;25.30;1.00;;;;;;7358745;19;20014;-61
2022/06/23 08:35:37;;;;;;;10.13;4.95;;;25.60;1.00;;;;;;7365062;19;20044;-61
2022/06/23 08:38:12;;;;;;;8.52;4.43;;;25.20;1.00;;;;;;7383149;19;20017;-61
2022/06/23 08:41:05;;;;;;;10.75;5.25;;;25.20;1.00;;;;;;7359461;19;20119;-61
2022/06/23 08:43:41;;;;;;;12.43;4.60;;;25.30;1.00;;;;;;7360553;19;20011;-62
2022/06/23 08:46:19;;;;;;;9.82;4.70;;;25.70;1.00;;;;;;7360887;19;20403;-62
2022/06/23 08:48:58;;;;;;;11.07;4.40;;;25.90;1.00;;;;;;7370678;19;20062;-62
2022/06/23 08:51:42;;;;;;;9.25;4.63;;;26.00;1.00;;;;;;7364143;19;20011;-62
2022/06/23 08:54:21;;;;;;;12.02;4.80;;;25.90;1.00;;;;;;7369767;19;20022;-62
2022/06/23 08:56:56;;;;;;;11.38;3.70;;;26.10;1.00;;;;;;7369581;19;20014;-60
2022/06/23 08:59:35;;;;;;;13.80;3.70;;;26.10;1.00;;;;;;7371430;19;20006;-61
2022/06/23 09:02:15;;;;;;;8.48;3.10;;;26.10;1.00;;;;;;7384881;19;20012;-61
2022/06/23 09:05:13;;;;;;;7.03;2.95;;;26.10;1.00;;;;;;7370987;19;20018;-61
2022/06/23 09:07:56;;;;;;;8.10;3.50;;;26.40;1.00;;;;;;7367896;19;20147;-61
2022/06/23 09:10:39;;;;;;;9.90;3.08;;;26.40;1.00;;;;;;7366311;19;20436;-62
2022/06/23 09:13:18;;;;;;;5.30;2.80;;;26.60;1.00;;;;;;7364223;19;20014;-61
2022/06/23 09:16:13;;;;;;;6.80;2.58;;;26.20;1.00;;;;;;7368964;19;20276;-61
2022/06/23 09:19:13;;;;;;;8.70;2.50;;;25.90;1.00;;;;;;7370147;19;20089;-62
2022/06/23 09:22:07;;;;;;;9.98;3.25;;;25.90;1.00;;;;;;7359793;19;20007;-62
2022/06/23 09:24:58;;;;;;;9.17;2.73;;;25.50;1.00;;;;;;7368883;19;20097;-62
2022/06/23 09:28:02;;;;;;;5.82;2.60;;;26.00;1.00;;;;;;7367438;19;21057;-62
2022/06/23 09:30:40;;;;;;;9.10;2.63;;;26.50;1.00;;;;;;7366144;19;20086;-62
2022/06/23 09:33:24;;;;;;;15.68;3.22;;;26.30;1.00;;;;;;7363115;19;20015;-62
2022/06/23 09:36:28;;;;;;;8.35;2.90;;;26.10;1.00;;;;;;7368158;19;20086;-61
2022/06/23 09:39:27;;;;;;;10.30;3.80;;;25.60;1.00;;;;;;7369228;19;20489;-62
2022/06/23 09:42:22;;;;;;;8.30;3.20;;;25.80;1.00;;;;;;7361239;19;20090;-62
2022/06/23 09:45:06;;;;;;;12.07;3.40;;;26.30;1.00;;;;;;7370348;19;20482;-62
2022/06/23 09:48:00;;;;;;;6.65;2.80;;;26.10;1.00;;;;;;7366827;19;20090;-61
2022/06/23 09:50:53;;;;;;;8.15;3.08;;;26.60;1.00;;;;;;7365241;19;20011;-62
2022/06/23 09:53:47;;;;;;;10.52;3.40;;;26.80;1.00;;;;;;7363137;19;20490;-61
2022/06/23 09:56:49;;;;;;;10.18;3.25;;;26.70;1.00;;;;;;7388985;19;20021;-61
2022/06/23 09:59:59;;;;;;;8.13;3.53;;;26.50;1.00;;;;;;7263072;19;2004232;-62
2022/06/23 10:02:41;;;;;;;15.18;3.40;;;26.40;1.00;;;;;;7364335;19;20087;-61
2022/06/23 10:05:30;;;;;;;9.43;3.30;;;26.80;1.00;;;;;;7389824;19;20035;-62
2022/06/23 10:08:13;;;;;;;9.43;3.40;;;26.80;1.00;;;;;;7364613;19;20378;-61
2022/06/23 10:11:10;;;;;;;7.95;3.28;;;26.40;1.00;;;;;;7365306;19;20029;-62
2022/06/23 10:13:55;;;;;;;10.93;4.03;;;26.40;1.00;;;;;;7365647;19;20081;-61
2022/06/23 10:16:50;;;;;;;11.25;3.47;;;26.50;1.00;;;;;;7366723;19;20081;-62
2022/06/23 10:19:36;;;;;;;7.57;3.75;;;27.00;1.00;;;;;;7368044;19;20114;-62
2022/06/23 10:22:23;;;;;;;9.52;3.67;;;27.10;1.00;;;;;;7359351;19;20007;-62
2022/06/23 10:25:28;;;;;;;8.85;3.58;;;27.20;1.00;;;;;;7366832;19;20018;-62
2022/06/23 10:28:24;;;;;;;9.43;3.15;;;27.90;1.00;;;;;;7366143;19;20467;-62
2022/06/23 10:31:00;;;;;;;8.52;3.13;;;28.30;1.00;;;;;;7364984;19;20014;-61
2022/06/23 10:33:55;;;;;;;10.45;3.08;;;28.00;1.00;;;;;;7363845;19;20475;-61
2022/06/23 10:36:44;;;;;;;9.55;3.53;;;27.40;1.00;;;;;;7366378;19;20405;-62
2022/06/23 10:39:28;;;;;;;9.82;3.08;;;27.90;1.00;;;;;;7367025;19;20028;-62
2022/06/23 10:42:20;;;;;;;7.38;3.63;;;27.50;1.00;;;;;;7359345;19;20014;-62
2022/06/23 10:45:07;;;;;;;10.18;3.10;;;27.50;1.00;;;;;;7366989;19;20126;-62
2022/06/23 10:47:57;;;;;;;12.15;3.65;;;27.80;1.00;;;;;;7364992;19;20484;-62
2022/06/23 10:50:39;;;;;;;7.28;3.15;;;28.00;1.00;;;;;;7363027;19;20573;-62
2022/06/23 10:53:41;;;;;;;10.40;3.08;;;28.40;1.00;;;;;;7361218;19;20014;-62
2022/06/23 10:56:34;;;;;;;6.68;3.33;;;28.30;1.00;;;;;;7387140;19;20117;-62
2022/06/23 10:59:24;;;;;;;11.30;2.92;;;28.20;1.00;;;;;;7366770;19;20058;-62
2022/06/23 11:02:26;;;;;;;11.48;3.45;;;28.50;1.00;;;;;;7358427;19;20025;-62
2022/06/23 11:05:26;;;;;;;8.98;3.17;;;28.40;1.00;;;;;;7364178;19;20565;-62
2022/06/23 11:08:18;;;;;;;9.40;3.40;;;28.10;1.00;;;;;;7365718;19;20417;-62
2022/06/23 11:11:11;;;;;;;9.73;3.50;;;28.00;1.00;;;;;;7361609;19;20021;-62
2022/06/23 11:13:53;;;;;;;9.70;3.58;;;27.80;1.00;;;;;;7363130;19;20097;-62
2022/06/23 11:16:34;;;;;;;8.65;3.53;;;27.80;1.00;;;;;;7363398;19;20014;-62
2022/06/23 11:19:18;;;;;;;8.90;3.17;;;27.80;1.00;;;;;;7365684;19;20010;-62
2022/06/23 11:22:09;;;;;;;10.45;3.20;;;28.00;1.00;;;;;;7357303;19;20393;-62
2022/06/23 11:24:51;;;;;;;7.68;3.45;;;27.90;1.00;;;;;;7365041;19;20015;-63
2022/06/23 11:27:32;;;;;;;7.83;2.97;;;27.90;1.00;;;;;;7364357;19;20011;-62
2022/06/23 11:30:17;;;;;;;8.75;3.30;;;27.70;1.00;;;;;;7362268;19;20478;-62
2022/06/23 11:33:04;;;;;;;9.38;3.85;;;27.90;1.00;;;;;;7360887;19;20101;-63
2022/06/23 11:35:46;;;;;;;9.60;3.33;;;28.10;1.00;;;;;;7366419;19;20035;-62
2022/06/23 11:38:29;;;;;;;9.15;3.03;;;28.60;1.00;;;;;;7388212;19;20074;-62
2022/06/23 11:41:29;;;;;;;8.90;3.25;;;28.50;1.00;;;;;;7361275;19;20070;-62
2022/06/23 11:44:17;;;;;;;9.55;3.30;;;28.80;1.00;;;;;;7363625;19;20109;-61
2022/06/23 11:46:56;;;;;;;11.30;3.30;;;28.40;1.00;;;;;;7364498;19;20312;-61
2022/06/23 11:49:40;;;;;;;11.68;3.70;;;28.40;1.00;;;;;;7365469;19;20028;-62
2022/06/23 11:52:26;;;;;;;8.32;3.28;;;28.70;1.00;;;;;;7358383;19;20006;-62
2022/06/23 11:55:20;;;;;;;12.55;3.78;;;29.20;1.00;;;;;;7365495;19;20074;-62
2022/06/23 11:58:23;;;;;;;10.52;2.80;;;28.90;1.00;;;;;;7365806;19;21551;-61
2022/06/23 12:01:04;;;;;;;9.23;3.42;;;29.20;1.00;;;;;;7361555;19;20108;-62
2022/06/23 12:03:54;;;;;;;8.55;3.00;;;29.20;1.00;;;;;;7362652;19;20010;-62
2022/06/23 12:06:35;;;;;;;12.85;3.70;;;29.10;1.00;;;;;;7364587;19;20119;-63
2022/06/23 12:09:17;;;;;;;10.10;3.20;;;28.40;1.00;;;;;;7364773;19;20077;-62
2022/06/23 12:11:50;;;;;;;9.32;3.22;;;28.90;1.00;;;;;;7356375;19;20010;-62
2022/06/23 12:14:23;;;;;;;12.90;3.47;;;29.30;1.00;;;;;;7383236;19;20082;-64
2022/06/23 12:16:59;;;;;;;10.83;3.33;;;29.10;1.00;;;;;;7384809;19;20027;-61
2022/06/23 12:19:39;;;;;;;12.10;3.10;;;29.40;1.00;;;;;;7364967;19;20629;-62
2022/06/23 12:22:18;;;;;;;9.85;3.90;;;29.80;1.00;;;;;;7357862;19;20026;-63
2022/06/23 12:24:57;;;;;;;10.88;3.65;;;29.90;1.00;;;;;;7372222;19;20011;-62
2022/06/23 12:27:30;;;;;;;9.15;3.13;;;29.70;1.00;;;;;;7369030;19;20014;-63
2022/06/23 12:30:07;;;;;;;8.57;3.78;;;29.90;1.00;;;;;;7368366;19;20106;-62
2022/06/23 12:32:45;;;;;;;13.98;3.97;;;29.40;1.00;;;;;;7365235;19;20481;-62
2022/06/23 12:35:23;;;;;;;13.27;3.40;;;29.50;1.00;;;;;;7381850;19;20652;-62
2022/06/23 12:37:59;;;;;;;11.60;3.38;;;28.60;1.00;;;;;;7370919;19;20093;-62
2022/06/23 12:40:35;;;;;;;9.57;3.83;;;28.70;1.00;;;;;;7366126;19;20395;-62
2022/06/23 12:43:14;;;;;;;10.00;3.03;;;29.00;1.00;;;;;;7365336;19;20474;-62
2022/06/23 12:46:05;;;;;;;11.50;3.40;;;29.10;1.00;;;;;;7370356;19;20014;-62
2022/06/23 12:48:58;;;;;;;12.02;3.75;;;29.40;1.00;;;;;;7370164;19;20015;-62
2022/06/23 12:51:37;;;;;;;9.15;3.60;;;29.70;1.00;;;;;;7364830;19;20047;-63
2022/06/23 12:54:34;;;;;;;9.48;3.60;;;29.50;1.00;;;;;;7369728;19;20078;-63
2022/06/23 12:57:30;;;;;;;9.65;3.42;;;30.00;1.00;;;;;;7368669;19;20010;-61
2022/06/23 13:00:11;;;;;;;8.07;3.20;;;29.70;1.00;;;;;;7367160;19;20533;-61
2022/06/23 13:02:49;;;;;;;10.93;3.97;;;29.60;1.00;;;;;;7365503;19;20023;-63
2022/06/23 13:05:25;;;;;;;10.88;3.97;;;29.60;1.00;;;;;;7391157;19;20021;-63
2022/06/23 13:08:00;;;;;;;11.93;3.55;;;29.50;1.00;;;;;;7369571;19;20010;-63
2022/06/23 13:10:36;;;;;;;8.18;3.85;;;29.90;1.00;;;;;;7366941;19;20014;-63
2022/06/23 13:13:11;;;;;;;11.05;3.55;;;30.20;1.00;;;;;;7365698;19;20006;-63
2022/06/23 13:15:47;;;;;;;14.00;3.65;;;30.00;1.00;;;;;;7368933;19;20010;-63
2022/06/23 13:18:24;;;;;;;9.18;3.42;;;30.00;1.00;;;;;;7369469;19;20011;-63
2022/06/23 13:20:58;;;;;;;8.40;3.83;;;30.20;1.00;;;;;;7368581;19;20020;-62
2022/06/23 13:23:37;;;;;;;7.55;3.38;;;30.10;1.00;;;;;;7365195;19;20535;-63
2022/06/23 13:26:14;;;;;;;12.85;3.63;;;30.00;1.00;;;;;;7390724;19;20006;-62
2022/06/23 13:28:46;;;;;;;13.38;4.10;;;30.00;1.00;;;;;;7368730;19;20070;-63
2022/06/23 13:31:22;;;;;;;10.43;3.85;;;29.70;1.00;;;;;;7363716;19;20006;-64
2022/06/23 13:33:59;;;;;;;12.02;4.38;;;29.80;1.00;;;;;;7363673;19;20010;-62
2022/06/23 13:36:39;;;;;;;11.57;3.22;;;30.00;1.00;;;;;;7369672;19;20014;-63
2022/06/23 13:39:25;;;;;;;9.50;3.33;;;30.20;1.00;;;;;;7371052;19;20018;-64
2022/06/23 13:42:02;;;;;;;9.93;4.00;;;30.20;1.00;;;;;;7360997;19;20096;-63
2022/06/23 13:44:37;;;;;;;8.13;3.85;;;30.10;1.00;;;;;;7368176;19;20009;-63
2022/06/23 13:47:13;;;;;;;10.43;4.47;;;30.60;1.00;;;;;;7387653;19;20021;-62
2022/06/23 13:49:52;;;;;;;10.63;3.53;;;30.20;1.00;;;;;;7366296;19;20025;-63
2022/06/23 13:52:27;;;;;;;10.30;4.13;;;29.90;1.00;;;;;;7360509;19;20012;-63
2022/06/23 13:55:03;;;;;;;11.45;3.60;;;29.90;1.00;;;;;;7367763;19;20010;-63